Springbrook, North Dakota
Current Conditions -  °F | °C
As of 11:52 PM on Monday 20 Oct 2014 (Local Time) from KISN Reporting Station
Clear Clear  
Wind Chill: 58°   Ceiling: Unl
Heat Index: 58°   Visibility: 10mi
Dew Point: 42°   Wind: 5mph
Humidity: 56%   Direction: 180°S
Pressure: 29.82"   Gusts: NA
Location:  48.2414°N, 103.345°W
Report Text: KISN 210452Z AUTO 18004KT 10SM CLR 14/06 A2982 RMK AO2 SLP095 T01440056
Loading
Personal Weather Stations






























Interactive Weather Map
Tropical Storm Tracking
New forecast layout! Learn more

10-Day Weather Forecast

Advertisements
Track Severe Weather on mobile